Accueil
METAR-TAF:

METAR-TAF

Aéroports :

Cranfield, Angleterre

latitude: 52-04N, longitude: 000-37W, altitude: 111 m

Observation

Le bulletin a été fait il y a 10 heures et 59 minutes, à 16:20 UTC
Vent 7 kt de est/nord-est
Température 16°C
Humidité 88%
Pression 1012 hPa
Visibilité 10 km ou plus
Nuages épars à une hauteur de 1200 ft
Nuages fragmentés à une hauteur de 1800 ft

METAR: EGTC 011620Z 06007KT 9999 SCT012 BKN018 16/14 Q1012

Heure: 04:19 (03:19 UTC)

Prévision

Le bulletin a été fait il y a 11 heures et 49 minutes, à 15:30 UTC
Prévision valable du 01 à 15 UTC au 01 à 18 UTC
Vent 5 kt de nord-est
Visibilité 10 km ou plus
Nuages épars à une hauteur de 2500 ft
Probabilité 30% :
Temporairement
du 01 à 15 UTC au 01 à 18 UTC
Nuages fragmentés à une hauteur de 1400 ft

TAF: EGTC 011530Z 0115/0118 04005KT 9999 SCT025 PROB30 TEMPO 0115/0118 BKN014

Observations et prévisions météorologiques de plus de 4000 aéroports (messages METAR et TAF).

Les stations disponibles sont représentées par des disques jaunes et rouges sur la carte.

Passer la souris dessus pour voir le nom de la station.

Cliquer dessus pour voir les observations et prévisions météorologiques.

Pour changer de carte: cliquez sur les boutons verts avec une croix noire pour zoomer, sur le bouton vert avec un tiret pour effectuer un zoom arrière, ou sur les flèches vertes pour les cartes adjacentes.


METAR-TAF: